Terminal Aerodrome Forecast
Issued by NWS Northern Indiana

Home | Current Version | Previous Version | Text Only | Print | Product List | Glossary Off
Versions: 1 2 3 4 5 6 7 8 9 10 11 12 13 14 15 16

000
FTUS43 KIWX 290500
TAFFWA
TAF
KFWA 290535Z 2906/3006 31003KT P6SM SKC
     FM291400 27006KT P6SM SCT035
     FM291800 29010KT P6SM VCSH BKN040
     FM292300 26003KT P6SM SCT250=

USA.gov is the U.S. government's official web portal to all federal, state and local government web resources and services.